createdAt,value
2018-09-21T00:01:02.636Z,49.90
2018-09-21T00:03:31.394Z,50.10
2018-09-21T00:06:00.255Z,50.20
2018-09-21T00:08:28.774Z,50.50
2018-09-21T00:10:57.465Z,50.60
2018-09-21T00:13:26.015Z,50.60
2018-09-21T00:15:54.584Z,50.70
2018-09-21T00:18:23.221Z,50.70
2018-09-21T00:20:51.824Z,50.90
2018-09-21T00:23:20.357Z,50.90
2018-09-21T00:25:48.946Z,51.00
2018-09-21T00:28:17.513Z,51.10
2018-09-21T00:30:46.041Z,51.10
2018-09-21T00:33:14.596Z,51.10
2018-09-21T00:35:43.188Z,51.30
2018-09-21T00:38:12.376Z,51.40
2018-09-21T00:40:41.333Z,51.40
2018-09-21T00:43:09.942Z,51.50
2018-09-21T00:45:39.109Z,51.30
2018-09-21T00:48:08.325Z,51.50
2018-09-21T00:50:37.521Z,51.70
2018-09-21T00:53:06.140Z,51.70
2018-09-21T00:55:34.858Z,51.90
2018-09-21T00:58:03.367Z,51.90
2018-09-21T01:00:32.478Z,52.00
2018-09-21T01:03:01.013Z,52.40
2018-09-21T01:05:29.562Z,52.20
2018-09-21T01:07:58.059Z,52.20
2018-09-21T01:10:26.592Z,52.20
2018-09-21T01:12:55.310Z,52.50
2018-09-21T01:15:23.901Z,52.50
2018-09-21T01:17:52.472Z,52.60
2018-09-21T01:20:21.798Z,52.60
2018-09-21T01:22:50.333Z,52.70
2018-09-21T01:25:19.144Z,52.80
2018-09-21T01:27:47.731Z,52.80
2018-09-21T01:30:16.790Z,52.80
2018-09-21T01:32:45.383Z,52.80
2018-09-21T01:35:14.055Z,53.00
2018-09-21T01:37:43.018Z,53.10
2018-09-21T01:40:12.926Z,53.20
2018-09-21T01:42:43.645Z,53.30
2018-09-21T01:45:12.204Z,53.50
2018-09-21T01:47:40.977Z,53.60
2018-09-21T01:50:09.563Z,53.80
2018-09-21T01:52:39.116Z,53.80
2018-09-21T01:55:07.709Z,53.90
2018-09-21T01:57:36.808Z,54.00
2018-09-21T02:00:05.620Z,54.10
2018-09-21T02:02:34.261Z,54.10
2018-09-21T02:05:03.553Z,54.20
2018-09-21T02:07:33.130Z,54.20
2018-09-21T02:10:01.974Z,54.40
2018-09-21T02:12:30.565Z,54.50
2018-09-21T02:14:59.184Z,54.50
2018-09-21T02:17:28.281Z,54.60
2018-09-21T02:19:57.153Z,54.70
2018-09-21T02:22:28.063Z,54.90
2018-09-21T02:24:56.768Z,55.00
2018-09-21T02:27:25.968Z,55.00
2018-09-21T02:30:00.000Z,55.10
2018-09-21T02:32:32.676Z,55.00
2018-09-21T02:35:02.890Z,55.10
2018-09-21T02:37:33.543Z,55.20
2018-09-21T02:40:03.624Z,55.40
2018-09-21T02:42:33.886Z,55.50
2018-09-21T02:45:02.574Z,55.50
2018-09-21T02:47:31.308Z,55.50
2018-09-21T02:49:59.905Z,55.50
2018-09-21T02:52:28.861Z,55.70
2018-09-21T02:54:57.480Z,55.70
2018-09-21T02:57:26.363Z,55.70
2018-09-21T02:59:54.985Z,55.80
2018-09-21T03:02:23.591Z,55.80
2018-09-21T03:04:52.739Z,55.80
2018-09-21T03:07:22.089Z,55.80
2018-09-21T03:09:50.667Z,56.00
2018-09-21T03:12:20.140Z,56.00
2018-09-21T03:14:49.765Z,56.10
2018-09-21T03:17:22.671Z,56.10
2018-09-21T03:19:51.635Z,56.30
2018-09-21T03:22:20.886Z,56.20
2018-09-21T03:24:50.658Z,56.30
2018-09-21T03:27:19.815Z,56.40
2018-09-21T03:29:49.723Z,56.50
2018-09-21T03:32:19.876Z,56.50
2018-09-21T03:34:50.089Z,56.60
2018-09-21T03:37:18.697Z,56.70
2018-09-21T03:39:48.279Z,56.80
2018-09-21T03:42:19.393Z,56.80
2018-09-21T03:44:48.424Z,56.80
2018-09-21T03:47:20.788Z,56.90
2018-09-21T03:49:50.913Z,56.80
2018-09-21T03:52:20.823Z,57.00
2018-09-21T03:54:49.444Z,57.10
2018-09-21T03:57:19.011Z,57.10
2018-09-21T03:59:48.228Z,57.20
2018-09-21T04:02:19.118Z,57.20
2018-09-21T04:04:49.020Z,57.30
2018-09-21T04:07:19.375Z,57.30
2018-09-21T04:09:47.930Z,57.40
2018-09-21T04:12:16.459Z,57.40
2018-09-21T04:14:45.211Z,57.50
2018-09-21T04:17:13.963Z,57.60
2018-09-21T04:19:42.819Z,57.60
2018-09-21T04:22:11.483Z,57.70
2018-09-21T04:24:40.765Z,57.70
2018-09-21T04:27:09.452Z,57.80
2018-09-21T04:29:38.283Z,58.40
2018-09-21T04:32:07.062Z,57.90
2018-09-21T04:34:35.968Z,58.00
2018-09-21T04:37:04.563Z,58.00
2018-09-21T04:39:33.196Z,58.00
2018-09-21T04:42:02.113Z,58.00
2018-09-21T04:44:30.697Z,58.10
2018-09-21T04:46:59.280Z,58.10
2018-09-21T04:49:27.842Z,58.10
2018-09-21T04:51:56.433Z,58.10
2018-09-21T04:54:25.308Z,58.10
2018-09-21T04:56:54.052Z,58.10
2018-09-21T04:59:22.655Z,58.10
2018-09-21T05:01:51.544Z,58.20
2018-09-21T05:04:20.133Z,58.20
2018-09-21T05:06:48.724Z,58.20
2018-09-21T05:09:17.369Z,58.20
2018-09-21T05:11:46.881Z,58.40
2018-09-21T05:14:15.619Z,58.40
2018-09-21T05:16:44.255Z,58.40
2018-09-21T05:19:12.902Z,58.50
2018-09-21T05:21:41.539Z,58.50
2018-09-21T05:24:10.529Z,58.60
2018-09-21T05:26:39.852Z,58.70
2018-09-21T05:29:09.396Z,58.70
2018-09-21T05:31:38.072Z,58.60
2018-09-21T05:34:06.897Z,58.70
2018-09-21T05:36:35.479Z,58.50
2018-09-21T05:39:05.911Z,58.50
2018-09-21T05:41:34.416Z,58.50
2018-09-21T05:44:03.001Z,58.40
2018-09-21T05:46:31.585Z,58.50
2018-09-21T05:49:00.266Z,58.30
2018-09-21T05:51:28.803Z,58.40
2018-09-21T05:53:57.313Z,58.30
2018-09-21T05:56:26.427Z,58.20
2018-09-21T05:58:54.921Z,58.20
2018-09-21T06:01:23.497Z,58.10
2018-09-21T06:03:52.147Z,58.10
2018-09-21T06:06:20.823Z,58.00
2018-09-21T06:08:49.355Z,57.80
2018-09-21T06:11:17.908Z,57.80
2018-09-21T06:13:46.527Z,57.70
2018-09-21T06:16:15.769Z,57.60
2018-09-21T06:18:44.416Z,57.50
2018-09-21T06:21:13.091Z,57.60
2018-09-21T06:23:41.735Z,57.50
2018-09-21T06:26:10.629Z,57.40
2018-09-21T06:28:39.839Z,57.40
2018-09-21T06:31:08.452Z,57.20
2018-09-21T06:33:38.299Z,57.20
2018-09-21T06:36:06.950Z,57.10
2018-09-21T06:38:35.509Z,57.00
2018-09-21T06:41:04.108Z,57.00
2018-09-21T06:43:32.595Z,56.80
2018-09-21T06:46:01.282Z,56.80
2018-09-21T06:48:29.814Z,56.70
2018-09-21T06:50:58.330Z,56.60
2018-09-21T06:53:26.832Z,56.40
2018-09-21T06:55:55.353Z,56.30
2018-09-21T06:58:23.870Z,56.30
2018-09-21T07:00:52.449Z,56.30
2018-09-21T07:03:21.049Z,56.20
2018-09-21T07:05:50.016Z,56.20
2018-09-21T07:08:18.575Z,56.00
2018-09-21T07:10:47.321Z,55.90
2018-09-21T07:13:15.909Z,55.90
2018-09-21T07:15:44.530Z,56.10
2018-09-21T07:18:13.168Z,55.80
2018-09-21T07:20:41.880Z,55.80
2018-09-21T07:23:10.625Z,55.80
2018-09-21T07:25:39.753Z,55.80
2018-09-21T07:28:08.300Z,55.80
2018-09-21T07:30:36.959Z,55.70
2018-09-21T07:33:05.525Z,55.80
2018-09-21T07:35:34.036Z,55.80
2018-09-21T07:38:03.144Z,55.80
2018-09-21T07:40:31.720Z,55.80
2018-09-21T07:43:00.877Z,55.70
2018-09-21T07:45:29.698Z,55.70
2018-09-21T07:47:58.541Z,55.70
2018-09-21T07:50:27.177Z,55.70
2018-09-21T07:52:55.762Z,55.60
2018-09-21T07:55:25.296Z,55.50
2018-09-21T07:57:54.029Z,55.50
2018-09-21T08:00:22.767Z,55.30
2018-09-21T08:02:51.301Z,55.20
2018-09-21T08:05:27.817Z,55.10
2018-09-21T08:07:56.439Z,55.00
2018-09-21T08:10:25.032Z,54.80
2018-09-21T08:12:53.596Z,54.70
2018-09-21T08:15:22.541Z,54.60
2018-09-21T08:17:51.370Z,54.60
2018-09-21T08:20:19.955Z,54.50
2018-09-21T08:22:48.654Z,54.40
2018-09-21T08:25:17.220Z,54.10
2018-09-21T08:27:46.081Z,54.10
2018-09-21T08:30:15.063Z,54.00
2018-09-21T08:32:44.858Z,54.40
2018-09-21T08:35:13.432Z,53.90
2018-09-21T08:37:42.728Z,53.90
2018-09-21T08:40:11.276Z,53.80
2018-09-21T08:42:40.163Z,53.90
2018-09-21T08:45:08.860Z,53.80
2018-09-21T08:47:37.513Z,53.70
2018-09-21T08:50:06.953Z,53.60
2018-09-21T08:52:35.704Z,53.50
2018-09-21T08:55:04.315Z,53.50
2018-09-21T08:57:32.807Z,53.50
2018-09-21T09:00:01.856Z,53.50
2018-09-21T09:02:30.463Z,53.20
2018-09-21T09:04:59.565Z,53.20
2018-09-21T09:07:28.139Z,53.10
2018-09-21T09:09:56.905Z,53.20
2018-09-21T09:12:25.725Z,53.00
2018-09-21T09:14:54.207Z,53.10
2018-09-21T09:17:22.942Z,53.00
2018-09-21T09:19:51.490Z,53.00
2018-09-21T09:22:20.109Z,52.90
2018-09-21T09:24:48.855Z,52.90
2018-09-21T09:27:17.559Z,52.90
2018-09-21T09:29:46.286Z,52.70
2018-09-21T09:32:15.494Z,52.40
2018-09-21T09:34:44.803Z,52.20
2018-09-21T09:37:13.419Z,52.00
2018-09-21T09:39:41.936Z,51.90
2018-09-21T09:42:10.522Z,51.30
2018-09-21T09:44:40.172Z,51.00
2018-09-21T09:47:08.794Z,50.90
2018-09-21T09:49:37.327Z,50.50
2018-09-21T09:52:06.520Z,50.30
2018-09-21T09:54:35.044Z,49.80
2018-09-21T09:57:03.550Z,49.40
2018-09-21T09:59:32.053Z,49.30
2018-09-21T10:02:00.796Z,49.40
2018-09-21T10:04:29.285Z,48.80
2018-09-21T10:06:57.827Z,48.60
2018-09-21T10:09:26.464Z,47.80
2018-09-21T10:11:55.156Z,47.90
2018-09-21T10:14:24.110Z,47.70
2018-09-21T10:16:52.746Z,47.60
2018-09-21T10:19:21.313Z,46.10
2018-09-21T10:21:49.843Z,45.90
2018-09-21T10:24:18.351Z,45.60
2018-09-21T10:26:47.155Z,46.20
2018-09-21T10:29:16.552Z,45.80
2018-09-21T10:31:45.147Z,46.20
2018-09-21T10:34:13.722Z,46.50
2018-09-21T10:36:42.285Z,46.10
2018-09-21T10:39:10.957Z,46.10
2018-09-21T10:41:39.928Z,45.80
2018-09-21T10:44:08.665Z,46.20
2018-09-21T10:46:38.126Z,46.80
2018-09-21T10:49:06.744Z,46.20
2018-09-21T10:51:35.343Z,45.30
2018-09-21T10:54:03.853Z,45.80
2018-09-21T10:56:32.376Z,46.00
2018-09-21T10:59:01.180Z,46.60
2018-09-21T11:01:29.821Z,46.70
2018-09-21T11:03:58.545Z,47.00
2018-09-21T11:06:27.404Z,47.10
2018-09-21T11:08:56.082Z,47.10
2018-09-21T11:11:24.718Z,46.80
2018-09-21T11:13:53.753Z,47.10
2018-09-21T11:16:22.323Z,47.30
2018-09-21T11:18:50.979Z,47.70
2018-09-21T11:21:20.098Z,48.00
2018-09-21T11:23:49.258Z,48.70
2018-09-21T11:26:17.819Z,49.10
2018-09-21T11:28:46.438Z,49.80
2018-09-21T11:31:15.041Z,51.20
2018-09-21T11:33:44.947Z,52.20
2018-09-21T11:36:13.641Z,52.90
2018-09-21T11:38:42.323Z,54.90
2018-09-21T11:41:11.210Z,56.00
2018-09-21T11:43:40.447Z,55.90
2018-09-21T11:46:09.077Z,56.20
2018-09-21T11:48:37.835Z,56.90
2018-09-21T11:51:06.738Z,57.30
2018-09-21T11:53:35.380Z,56.90
2018-09-21T11:56:04.087Z,57.10
2018-09-21T11:58:32.879Z,57.30
2018-09-21T12:01:01.558Z,57.30
2018-09-21T12:03:30.499Z,57.10
2018-09-21T12:05:59.252Z,56.20
2018-09-21T12:08:27.748Z,56.10
2018-09-21T12:10:56.787Z,55.40
2018-09-21T12:13:25.837Z,55.40
2018-09-21T12:15:54.673Z,55.90
2018-09-21T12:18:23.249Z,55.90
2018-09-21T12:20:51.847Z,56.10
2018-09-21T12:23:20.502Z,56.30
2018-09-21T12:25:49.075Z,56.40
2018-09-21T12:28:18.076Z,56.60
2018-09-21T12:30:46.829Z,56.70
2018-09-21T12:33:15.436Z,56.70
2018-09-21T12:35:44.746Z,56.40
2018-09-21T12:38:13.820Z,56.20
2018-09-21T12:40:43.553Z,56.30
2018-09-21T12:43:12.210Z,56.10
2018-09-21T12:45:41.161Z,55.80
2018-09-21T12:48:09.711Z,55.80
2018-09-21T12:50:38.317Z,55.20
2018-09-21T12:53:07.188Z,55.20
2018-09-21T12:55:36.842Z,55.10
2018-09-21T12:58:06.017Z,54.80
2018-09-21T13:00:39.982Z,55.20
2018-09-21T13:03:09.093Z,54.70
2018-09-21T13:05:37.873Z,54.70
2018-09-21T13:08:06.831Z,54.40
2018-09-21T13:10:35.778Z,54.60
2018-09-21T13:13:04.937Z,54.60
2018-09-21T13:15:34.085Z,54.90
2018-09-21T13:18:03.122Z,55.20
2018-09-21T13:20:31.687Z,55.20
2018-09-21T13:23:00.253Z,55.60
2018-09-21T13:25:30.690Z,55.80
2018-09-21T13:27:59.606Z,56.30
2018-09-21T13:30:28.358Z,57.10
2018-09-21T13:32:57.408Z,57.70
2018-09-21T13:35:28.385Z,58.50
2018-09-21T13:37:57.361Z,58.60
2018-09-21T13:40:27.731Z,58.80
2018-09-21T13:42:57.458Z,58.90
2018-09-21T13:45:27.577Z,59.20
2018-09-21T13:47:57.534Z,58.80
2018-09-21T13:50:26.133Z,59.20
2018-09-21T13:52:54.828Z,58.90
2018-09-21T13:55:23.621Z,58.90
2018-09-21T13:57:52.257Z,59.00
2018-09-21T14:00:21.387Z,59.30
2018-09-21T14:02:50.169Z,59.30
2018-09-21T14:05:18.973Z,59.10
2018-09-21T14:07:48.425Z,59.30
2018-09-21T14:10:18.818Z,59.50
2018-09-21T14:12:47.584Z,59.50
2018-09-21T14:15:16.894Z,59.50
2018-09-21T14:17:47.224Z,59.90
2018-09-21T14:20:16.030Z,59.80
2018-09-21T14:22:45.692Z,59.70
2018-09-21T14:25:21.745Z,59.70
2018-09-21T14:27:53.690Z,60.10
2018-09-21T14:30:22.884Z,59.80
2018-09-21T14:32:51.412Z,59.80
2018-09-21T14:35:20.604Z,59.80
2018-09-21T14:37:49.622Z,59.50
2018-09-21T14:40:18.300Z,59.70
2018-09-21T14:42:47.416Z,59.60
2018-09-21T14:45:16.480Z,59.60
2018-09-21T14:47:45.952Z,59.60
2018-09-21T14:50:16.118Z,59.70
2018-09-21T14:52:44.805Z,59.60
2018-09-21T14:55:14.034Z,59.70
2018-09-21T14:57:42.624Z,59.40
2018-09-21T15:00:11.992Z,59.50
2018-09-21T15:02:40.712Z,59.00
2018-09-21T15:05:09.266Z,59.10
2018-09-21T15:07:39.299Z,59.30
2018-09-21T15:10:08.036Z,57.70
2018-09-21T15:12:36.700Z,56.60
2018-09-21T15:15:05.503Z,55.10
2018-09-21T15:17:35.052Z,54.50
2018-09-21T15:20:03.885Z,54.70
2018-09-21T15:22:32.482Z,55.00
2018-09-21T15:25:01.323Z,55.40
2018-09-21T15:27:29.973Z,53.80
2018-09-21T15:29:58.723Z,53.40
2018-09-21T15:32:29.547Z,52.90
2018-09-21T15:34:58.512Z,52.50
2018-09-21T15:37:27.116Z,52.60
2018-09-21T15:39:56.332Z,51.80
2018-09-21T15:42:24.944Z,51.50
2018-09-21T15:44:55.377Z,51.50
2018-09-21T15:47:25.539Z,51.00
2018-09-21T15:49:54.194Z,50.80
2018-09-21T15:52:23.560Z,50.80
2018-09-21T15:54:52.141Z,50.30
2018-09-21T15:57:21.589Z,50.10
2018-09-21T15:59:50.680Z,50.50
2018-09-21T16:02:19.514Z,50.50
2018-09-21T16:04:49.637Z,50.50
2018-09-21T16:07:18.470Z,50.20
2018-09-21T16:09:47.051Z,50.10
2018-09-21T16:12:15.932Z,50.50
2018-09-21T16:14:44.685Z,50.70
2018-09-21T16:17:13.865Z,51.00
2018-09-21T16:19:43.085Z,51.20
2018-09-21T16:22:12.641Z,51.10
2018-09-21T16:24:41.378Z,51.60
2018-09-21T16:27:10.005Z,51.20
2018-09-21T16:29:39.308Z,50.90
2018-09-21T16:32:08.701Z,51.70
2018-09-21T16:34:37.818Z,51.10
2018-09-21T16:37:06.548Z,51.20
2018-09-21T16:39:35.580Z,51.30
2018-09-21T16:42:04.616Z,51.10
2018-09-21T16:44:34.030Z,50.80
2018-09-21T16:47:03.160Z,51.00
2018-09-21T16:49:31.904Z,51.10
2018-09-21T16:52:01.458Z,50.90
2018-09-21T16:54:30.632Z,50.60
2018-09-21T16:57:00.078Z,50.80
2018-09-21T16:59:29.260Z,50.90
2018-09-21T17:01:59.900Z,51.30
2018-09-21T17:04:29.794Z,51.60
2018-09-21T17:06:59.475Z,51.70
2018-09-21T17:09:28.741Z,51.90
2018-09-21T17:11:58.070Z,52.00
2018-09-21T17:14:26.788Z,52.20
2018-09-21T17:16:56.092Z,52.20
2018-09-21T17:19:24.651Z,52.10
2018-09-21T17:21:53.499Z,51.80
2018-09-21T17:24:22.228Z,51.20
2018-09-21T17:26:50.972Z,50.80
2018-09-21T17:29:19.630Z,50.60
2018-09-21T17:31:48.447Z,49.30
2018-09-21T17:34:17.239Z,49.10
2018-09-21T17:36:46.061Z,48.90
2018-09-21T17:39:14.869Z,49.00
2018-09-21T17:41:44.188Z,48.80
2018-09-21T17:44:13.557Z,48.80
2018-09-21T17:46:43.918Z,48.50
2018-09-21T17:49:12.611Z,48.80
2018-09-21T17:51:47.769Z,48.50
2018-09-21T17:54:17.881Z,48.50
2018-09-21T17:56:49.694Z,48.40
2018-09-21T17:59:19.156Z,48.30
2018-09-21T18:01:47.905Z,48.40
2018-09-21T18:04:17.253Z,48.40
2018-09-21T18:06:46.487Z,48.40
2018-09-21T18:09:15.134Z,48.30
2018-09-21T18:11:43.908Z,48.10
2018-09-21T18:14:12.544Z,48.20
2018-09-21T18:16:41.391Z,48.20
2018-09-21T18:19:12.512Z,48.20
2018-09-21T18:21:44.991Z,48.10
2018-09-21T18:24:17.525Z,48.10
2018-09-21T18:26:50.983Z,48.00
2018-09-21T18:29:22.251Z,48.30
2018-09-21T18:31:57.756Z,48.40
2018-09-21T18:34:28.020Z,48.40
2018-09-21T18:36:58.631Z,48.40
2018-09-21T18:39:27.882Z,48.30
2018-09-21T18:41:56.529Z,48.40
2018-09-21T18:44:25.224Z,48.50
2018-09-21T18:46:54.433Z,48.50
2018-09-21T18:49:22.986Z,48.50
2018-09-21T18:51:52.456Z,48.70
2018-09-21T18:54:21.223Z,48.80
2018-09-21T18:56:50.472Z,48.60
2018-09-21T18:59:19.017Z,48.80
2018-09-21T19:01:47.679Z,49.00
2018-09-21T19:04:16.927Z,49.00
2018-09-21T19:06:45.685Z,49.00
2018-09-21T19:09:14.428Z,49.10
2018-09-21T19:11:43.054Z,49.10
2018-09-21T19:14:14.613Z,49.00
2018-09-21T19:16:47.594Z,49.20
2018-09-21T19:19:19.178Z,49.20
2018-09-21T19:21:48.924Z,49.10
2018-09-21T19:24:17.948Z,49.30
2018-09-21T19:26:47.444Z,49.20
2018-09-21T19:29:16.617Z,49.20
2018-09-21T19:31:45.283Z,49.30
2018-09-21T19:34:13.989Z,49.30
2018-09-21T19:36:42.843Z,49.20
2018-09-21T19:39:12.788Z,49.40
2018-09-21T19:41:42.359Z,49.40
2018-09-21T19:44:12.234Z,49.40
2018-09-21T19:46:41.254Z,49.40
2018-09-21T19:49:09.946Z,49.30
2018-09-21T19:51:39.501Z,49.40
2018-09-21T19:54:08.184Z,49.40
2018-09-21T19:56:37.198Z,49.40
2018-09-21T19:59:06.057Z,49.40
2018-09-21T20:01:35.565Z,49.30
2018-09-21T20:04:04.218Z,49.30
2018-09-21T20:06:33.117Z,49.30
2018-09-21T20:09:01.707Z,49.30
2018-09-21T20:11:30.551Z,49.50
2018-09-21T20:13:59.190Z,49.40
2018-09-21T20:16:27.751Z,49.50
2018-09-21T20:18:56.600Z,49.40
2018-09-21T20:21:25.307Z,49.50
2018-09-21T20:23:53.842Z,49.50
2018-09-21T20:26:23.943Z,49.50
2018-09-21T20:28:53.070Z,49.70
2018-09-21T20:31:27.543Z,49.70
2018-09-21T20:33:56.507Z,49.80
2018-09-21T20:36:25.448Z,49.70
2018-09-21T20:38:54.019Z,49.90
2018-09-21T20:41:22.687Z,49.80
2018-09-21T20:43:51.428Z,49.80
2018-09-21T20:46:20.060Z,50.10
2018-09-21T20:48:48.596Z,50.10
2018-09-21T20:51:17.512Z,50.20
2018-09-21T20:53:46.192Z,50.20
2018-09-21T20:56:14.822Z,50.20
2018-09-21T20:58:46.245Z,50.40
2018-09-21T21:01:15.772Z,50.60
2018-09-21T21:03:45.693Z,50.70
2018-09-21T21:06:16.449Z,50.70
2018-09-21T21:08:45.343Z,50.80
2018-09-21T21:11:14.718Z,50.80
2018-09-21T21:13:43.458Z,50.70
2018-09-21T21:16:12.107Z,50.70
2018-09-21T21:18:42.044Z,50.60
2018-09-21T21:21:11.332Z,50.50
2018-09-21T21:23:40.692Z,50.50
2018-09-21T21:26:10.120Z,50.40
2018-09-21T21:28:39.088Z,50.20
2018-09-21T21:31:07.773Z,50.00
2018-09-21T21:33:36.618Z,49.90
2018-09-21T21:36:05.352Z,50.00
2018-09-21T21:38:34.103Z,49.80
2018-09-21T21:41:02.688Z,50.20
2018-09-21T21:43:31.837Z,49.80
2018-09-21T21:46:00.572Z,50.00
2018-09-21T21:48:30.390Z,50.00
2018-09-21T21:50:59.516Z,50.00
2018-09-21T21:53:28.819Z,49.80
2018-09-21T21:55:58.036Z,50.00
2018-09-21T21:58:27.192Z,50.10
2018-09-21T22:01:01.117Z,49.80
2018-09-21T22:03:29.671Z,49.90
2018-09-21T22:05:58.312Z,50.00
2018-09-21T22:08:27.392Z,49.90
2018-09-21T22:10:56.369Z,49.80
2018-09-21T22:13:30.591Z,49.90
2018-09-21T22:16:00.239Z,49.90
2018-09-21T22:18:28.847Z,50.00
2018-09-21T22:20:57.565Z,50.10
2018-09-21T22:23:26.382Z,50.10
2018-09-21T22:25:55.208Z,50.20
2018-09-21T22:28:23.756Z,50.10
2018-09-21T22:30:52.662Z,50.20
2018-09-21T22:33:21.374Z,50.30
2018-09-21T22:35:50.893Z,50.30
2018-09-21T22:38:20.072Z,50.10
2018-09-21T22:40:48.764Z,50.30
2018-09-21T22:43:18.789Z,50.30
2018-09-21T22:45:48.161Z,50.40
2018-09-21T22:48:16.860Z,50.50
2018-09-21T22:50:45.781Z,50.50
2018-09-21T22:53:15.055Z,50.50
2018-09-21T22:55:44.512Z,50.70
2018-09-21T22:58:13.565Z,50.40
2018-09-21T23:00:43.368Z,50.50
2018-09-21T23:03:12.948Z,50.60
2018-09-21T23:05:42.125Z,50.60
2018-09-21T23:08:11.606Z,51.10
2018-09-21T23:10:40.618Z,50.60
2018-09-21T23:13:10.103Z,50.60
2018-09-21T23:15:39.477Z,50.70
2018-09-21T23:18:09.291Z,50.70
2018-09-21T23:20:39.020Z,50.60
2018-09-21T23:23:07.831Z,50.80
2018-09-21T23:25:36.438Z,50.70
2018-09-21T23:28:05.737Z,50.60
2018-09-21T23:30:34.420Z,50.70
2018-09-21T23:33:03.071Z,50.80
2018-09-21T23:35:32.745Z,50.90
2018-09-21T23:38:01.565Z,51.00
2018-09-21T23:40:30.264Z,50.90
2018-09-21T23:42:59.144Z,51.00
2018-09-21T23:45:28.395Z,51.00
2018-09-21T23:47:56.967Z,51.10
2018-09-21T23:50:25.595Z,51.10
2018-09-21T23:52:54.237Z,51.20
2018-09-21T23:55:29.318Z,51.10
2018-09-21T23:57:58.120Z,51.30
